Time;durP1;ratioP1;P1;durP2;ratioP2;P2;SDS_P1;SDS_P2;PMS_P1;PMS_P2;Temp;Humidity;BMP_temperature;BMP_pressure;BME280_temperature;BME280_humidity;BME280_pressure;Samples;Min_cycle;Max_cycle;Signal;HPM_P1;HPM_P2
2023/05/12 00:02:13;;;;;;;17.50;16.90;;;22.00;95.50;;;;;;5034344;28;20491;-54
2023/05/12 00:04:40;;;;;;;17.03;16.43;;;21.90;95.50;;;;;;5034106;28;20575;-52
2023/05/12 00:07:07;;;;;;;17.00;16.40;;;21.90;95.60;;;;;;5052991;28;20482;-55
2023/05/12 00:09:35;;;;;;;16.90;16.20;;;21.90;95.40;;;;;;5054184;28;20444;-53
2023/05/12 00:12:02;;;;;;;18.00;17.40;;;21.90;95.40;;;;;;5054235;28;20483;-53
2023/05/12 00:14:30;;;;;;;17.67;17.07;;;21.90;95.40;;;;;;5053771;28;20444;-54
2023/05/12 00:16:57;;;;;;;17.70;17.10;;;21.90;95.50;;;;;;5053678;28;20491;-52
2023/05/12 00:19:24;;;;;;;18.37;17.57;;;21.90;95.40;;;;;;5054120;28;20472;-52
2023/05/12 00:21:51;;;;;;;17.70;17.10;;;21.90;95.60;;;;;;5034043;28;20528;-53
2023/05/12 00:24:18;;;;;;;17.17;16.57;;;21.90;95.60;;;;;;5033664;28;20519;-53
2023/05/12 00:26:45;;;;;;;17.77;17.17;;;21.90;95.60;;;;;;5033870;28;20481;-55
2023/05/12 00:29:11;;;;;;;17.00;16.40;;;21.90;95.60;;;;;;5033831;28;20476;-52
2023/05/12 00:31:40;;;;;;;17.57;16.87;;;21.90;95.60;;;;;;5033782;28;20532;-54
2023/05/12 00:34:06;;;;;;;16.93;16.37;;;21.90;95.60;;;;;;5033642;28;20522;-51
2023/05/12 00:36:33;;;;;;;17.77;17.17;;;21.90;95.70;;;;;;5033627;28;20481;-53
2023/05/12 00:39:00;;;;;;;18.13;17.53;;;21.90;95.70;;;;;;5033704;28;20552;-52
2023/05/12 00:41:27;;;;;;;18.73;18.03;;;21.80;95.60;;;;;;5044376;28;20943;-54
2023/05/12 00:43:54;;;;;;;17.47;16.87;;;21.80;95.70;;;;;;5053363;28;20558;-56
2023/05/12 00:46:21;;;;;;;17.00;16.40;;;21.80;95.70;;;;;;5053483;28;20480;-52
2023/05/12 00:48:50;;;;;;;17.27;16.67;;;21.80;95.60;;;;;;5050342;28;20496;-54
2023/05/12 00:51:16;;;;;;;17.73;17.13;;;21.90;95.70;;;;;;5033427;28;20571;-54
2023/05/12 00:53:43;;;;;;;17.73;17.13;;;21.80;95.60;;;;;;5032953;28;20955;-52
2023/05/12 00:56:11;;;;;;;16.93;16.33;;;21.80;95.60;;;;;;5033266;28;20480;-55
2023/05/12 00:58:39;;;;;;;17.10;16.60;;;21.80;95.60;;;;;;5033224;28;21019;-52
2023/05/12 01:01:06;;;;;;;16.97;16.37;;;21.80;95.60;;;;;;5033384;28;20477;-55
2023/05/12 01:03:33;;;;;;;18.70;18.10;;;21.80;95.70;;;;;;5032986;28;20535;-52
2023/05/12 01:06:12;;;;;;;18.13;17.50;;;21.80;95.70;;;;;;5033194;28;20481;-54
2023/05/12 01:08:41;;;;;;;17.47;16.83;;;21.80;95.70;;;;;;5043507;28;20507;-52
2023/05/12 01:11:08;;;;;;;18.20;17.60;;;21.80;95.70;;;;;;5050328;28;20483;-56
2023/05/12 01:13:35;;;;;;;17.70;17.00;;;21.80;95.80;;;;;;5051319;28;20935;-52
2023/05/12 01:16:03;;;;;;;18.30;17.70;;;21.80;95.80;;;;;;5052942;28;20483;-53
2023/05/12 01:18:34;;;;;;;18.00;17.20;;;21.80;95.80;;;;;;5052838;28;20507;-53
2023/05/12 01:21:03;;;;;;;17.70;17.10;;;21.80;95.80;;;;;;5052270;28;20483;-53
2023/05/12 01:23:36;;;;;;;16.90;16.30;;;21.80;95.80;;;;;;5012252;28;20819;-53
2023/05/12 01:26:07;;;;;;;17.27;16.67;;;21.80;95.80;;;;;;5013182;28;20481;-53
2023/05/12 01:28:35;;;;;;;17.03;16.53;;;21.80;95.70;;;;;;5012920;28;20476;-56
2023/05/12 01:31:04;;;;;;;17.53;16.93;;;21.80;95.70;;;;;;5012974;28;20482;-55
2023/05/12 01:33:32;;;;;;;17.13;16.63;;;21.80;95.70;;;;;;5012686;28;20446;-50
2023/05/12 01:35:59;;;;;;;17.67;17.07;;;21.80;95.70;;;;;;5012866;28;20477;-52
2023/05/12 01:38:26;;;;;;;17.43;16.93;;;21.80;95.90;;;;;;5012762;28;20505;-53
2023/05/12 01:40:53;;;;;;;17.87;17.27;;;21.80;95.80;;;;;;5012809;28;20485;-54
2023/05/12 01:43:21;;;;;;;18.00;17.40;;;21.80;95.70;;;;;;5012569;28;20885;-51
2023/05/12 01:45:48;;;;;;;17.30;16.70;;;21.80;95.70;;;;;;5012686;28;20481;-52
2023/05/12 01:48:15;;;;;;;17.00;16.50;;;21.80;95.70;;;;;;5012593;28;20497;-52
2023/05/12 01:50:42;;;;;;;16.90;16.30;;;21.80;95.60;;;;;;5012645;28;20482;-51
2023/05/12 01:53:09;;;;;;;17.80;17.10;;;21.70;95.60;;;;;;5012412;28;20488;-55
2023/05/12 01:55:36;;;;;;;17.57;17.00;;;21.70;95.70;;;;;;5012520;28;20926;-51
2023/05/12 01:58:03;;;;;;;17.57;16.97;;;21.70;95.70;;;;;;5012387;28;20617;-54
2023/05/12 02:00:31;;;;;;;17.27;16.73;;;21.70;95.70;;;;;;5012521;28;20477;-54
2023/05/12 02:02:58;;;;;;;17.73;17.13;;;21.70;95.70;;;;;;5012585;28;20843;-53
2023/05/12 02:05:25;;;;;;;16.60;16.10;;;21.70;95.70;;;;;;5011443;28;20474;-51
2023/05/12 02:07:52;;;;;;;17.57;16.97;;;21.70;95.80;;;;;;5012109;28;20889;-52
2023/05/12 02:10:19;;;;;;;17.70;17.10;;;21.70;95.60;;;;;;5012373;28;20454;-53
2023/05/12 02:12:45;;;;;;;16.90;16.40;;;21.70;95.60;;;;;;5012044;28;20456;-54
2023/05/12 02:15:12;;;;;;;17.40;16.70;;;21.70;95.70;;;;;;5012055;28;20532;-55
2023/05/12 02:17:41;;;;;;;17.13;16.63;;;21.70;95.70;;;;;;5012221;28;20528;-54
2023/05/12 02:20:10;;;;;;;17.50;16.90;;;21.70;95.60;;;;;;5012022;28;20485;-56
2023/05/12 02:22:37;;;;;;;17.83;17.23;;;21.70;95.70;;;;;;5012052;28;20493;-52
2023/05/12 02:25:05;;;;;;;17.10;16.57;;;21.70;95.60;;;;;;5011911;28;20568;-52
2023/05/12 02:27:32;;;;;;;17.07;16.47;;;21.70;95.70;;;;;;5012017;28;20501;-53
2023/05/12 02:29:59;;;;;;;16.43;15.93;;;21.70;95.60;;;;;;5011975;28;20442;-53
2023/05/12 02:32:27;;;;;;;16.30;15.80;;;21.70;95.60;;;;;;5011863;28;20541;-52
2023/05/12 02:34:56;;;;;;;16.00;15.50;;;21.70;95.60;;;;;;5011786;28;20968;-55
2023/05/12 02:37:23;;;;;;;16.40;15.90;;;21.60;95.60;;;;;;5011879;28;20501;-53
2023/05/12 02:39:50;;;;;;;16.60;16.10;;;21.60;95.60;;;;;;5011805;28;20529;-55
2023/05/12 02:42:17;;;;;;;16.83;16.33;;;21.70;95.70;;;;;;5011786;28;20529;-54
2023/05/12 02:44:44;;;;;;;16.47;15.97;;;21.60;95.60;;;;;;5011602;28;20573;-51
2023/05/12 02:47:10;;;;;;;16.90;16.30;;;21.60;95.60;;;;;;5011629;28;20498;-54
2023/05/12 02:49:37;;;;;;;16.10;15.60;;;21.60;95.70;;;;;;5011709;28;20485;-51
2023/05/12 02:52:06;;;;;;;16.90;16.30;;;21.60;95.70;;;;;;5011758;28;20489;-57
2023/05/12 02:54:33;;;;;;;16.30;15.80;;;21.60;95.70;;;;;;5011468;28;20477;-56
2023/05/12 02:57:04;;;;;;;16.67;16.17;;;21.60;95.70;;;;;;5011563;28;20485;-53
2023/05/12 02:59:31;;;;;;;16.77;16.27;;;21.60;95.80;;;;;;5011639;28;20450;-56
2023/05/12 03:01:58;;;;;;;15.77;15.30;;;21.60;95.80;;;;;;5011621;28;20529;-54
2023/05/12 03:04:25;;;;;;;17.40;16.80;;;21.60;95.80;;;;;;5011217;28;20917;-54
2023/05/12 03:06:52;;;;;;;16.50;16.00;;;21.60;95.70;;;;;;5011375;28;20504;-53
2023/05/12 03:09:20;;;;;;;17.40;16.90;;;21.60;95.80;;;;;;5011519;28;20474;-54
2023/05/12 03:11:47;;;;;;;16.87;16.37;;;21.60;95.80;;;;;;5011487;28;20458;-54
2023/05/12 03:14:14;;;;;;;16.87;16.37;;;21.60;95.80;;;;;;5011315;28;20533;-57
2023/05/12 03:16:41;;;;;;;17.10;16.60;;;21.60;95.70;;;;;;5014562;28;20485;-53
2023/05/12 03:19:07;;;;;;;16.87;16.37;;;21.60;95.70;;;;;;5015317;28;20540;-52
2023/05/12 03:21:34;;;;;;;17.83;17.20;;;21.60;95.70;;;;;;5015497;28;20968;-55
2023/05/12 03:24:02;;;;;;;17.40;16.90;;;21.60;95.80;;;;;;5015163;28;20484;-55
2023/05/12 03:26:30;;;;;;;16.80;16.30;;;21.60;95.80;;;;;;5015341;28;20454;-55
2023/05/12 03:28:57;;;;;;;16.80;16.30;;;21.60;95.80;;;;;;5015220;28;20480;-50
2023/05/12 03:31:24;;;;;;;17.03;16.53;;;21.60;95.80;;;;;;5015133;28;20506;-52
2023/05/12 03:33:51;;;;;;;17.50;17.00;;;21.60;95.80;;;;;;5014854;28;20516;-52
2023/05/12 03:36:18;;;;;;;18.53;17.67;;;21.50;95.70;;;;;;5015122;28;20481;-51
2023/05/12 03:38:45;;;;;;;16.30;15.80;;;21.50;95.90;;;;;;5014965;28;20508;-50
2023/05/12 03:41:12;;;;;;;16.70;16.20;;;21.50;95.90;;;;;;5015031;28;20454;-55
2023/05/12 03:43:40;;;;;;;16.80;16.10;;;21.50;95.80;;;;;;5014766;28;20529;-54
2023/05/12 03:46:07;;;;;;;16.73;16.23;;;21.50;95.80;;;;;;5014937;28;20561;-52
2023/05/12 03:48:34;;;;;;;16.73;16.23;;;21.50;95.80;;;;;;5014802;28;20563;-54
2023/05/12 03:51:01;;;;;;;16.43;15.93;;;21.50;95.90;;;;;;5014899;28;20538;-54
2023/05/12 03:53:27;;;;;;;15.60;15.20;;;21.50;95.90;;;;;;5020097;28;20482;-51
2023/05/12 03:55:54;;;;;;;16.40;15.90;;;21.50;95.70;;;;;;5032898;28;20481;-53
2023/05/12 03:58:23;;;;;;;17.13;16.63;;;21.50;95.70;;;;;;5033011;28;21048;-52
2023/05/12 04:00:51;;;;;;;17.47;16.97;;;21.50;95.80;;;;;;5034370;28;20445;-55
2023/05/12 04:03:18;;;;;;;16.20;15.67;;;21.50;95.80;;;;;;5033584;28;20444;-55
2023/05/12 04:05:45;;;;;;;17.50;17.00;;;21.50;95.80;;;;;;5034090;28;20567;-55
2023/05/12 04:08:12;;;;;;;18.13;17.63;;;21.50;95.80;;;;;;5034128;28;20541;-50
2023/05/12 04:10:39;;;;;;;17.07;16.57;;;21.50;96.10;;;;;;5034254;28;20479;-51
2023/05/12 04:13:07;;;;;;;17.63;17.13;;;21.50;95.80;;;;;;5034069;28;20441;-54
2023/05/12 04:15:34;;;;;;;17.00;16.50;;;21.50;95.80;;;;;;5034038;28;20815;-51
2023/05/12 04:18:02;;;;;;;17.90;17.40;;;21.50;95.90;;;;;;5034031;28;20831;-52
2023/05/12 04:20:29;;;;;;;17.70;17.10;;;21.50;95.90;;;;;;5034055;28;20967;-52
2023/05/12 04:22:56;;;;;;;18.00;17.40;;;21.50;95.80;;;;;;5033899;28;20873;-52
2023/05/12 04:25:23;;;;;;;18.73;18.10;;;21.50;96.20;;;;;;5033797;28;20480;-53
2023/05/12 04:27:50;;;;;;;18.53;17.93;;;21.50;96.30;;;;;;5032952;28;20497;-52
2023/05/12 04:30:17;;;;;;;18.10;17.60;;;21.50;96.30;;;;;;5033880;28;20487;-55
2023/05/12 04:32:44;;;;;;;18.40;17.80;;;21.40;96.30;;;;;;5033770;28;20480;-50
2023/05/12 04:35:12;;;;;;;19.00;18.30;;;21.40;96.40;;;;;;5033746;28;20471;-52
2023/05/12 04:37:39;;;;;;;18.30;17.80;;;21.40;96.50;;;;;;5033678;28;20833;-50
2023/05/12 04:40:07;;;;;;;18.17;17.57;;;21.40;96.50;;;;;;5033792;28;20496;-53
2023/05/12 04:42:35;;;;;;;17.90;17.40;;;21.40;96.90;;;;;;5016026;28;21002;-54
2023/05/12 04:45:02;;;;;;;18.13;17.47;;;21.40;96.70;;;;;;5033561;28;20516;-51
2023/05/12 04:47:29;;;;;;;18.33;17.63;;;21.40;96.70;;;;;;5033522;28;20465;-53
2023/05/12 04:49:56;;;;;;;19.37;18.67;;;21.40;97.10;;;;;;5033590;28;20453;-55
2023/05/12 04:52:24;;;;;;;20.20;19.40;;;21.40;97.00;;;;;;5033456;28;20487;-51
2023/05/12 04:54:52;;;;;;;20.23;19.43;;;21.40;97.00;;;;;;5033388;28;20813;-52
2023/05/12 04:57:19;;;;;;;19.67;18.83;;;21.40;97.10;;;;;;5033323;28;20473;-54
2023/05/12 04:59:46;;;;;;;20.67;19.77;;;21.30;97.20;;;;;;5033287;28;20481;-54
2023/05/12 05:02:12;;;;;;;19.87;19.17;;;21.30;97.10;;;;;;5033250;28;20481;-51
2023/05/12 05:04:40;;;;;;;20.40;19.70;;;21.30;97.10;;;;;;5033169;28;20490;-52
2023/05/12 05:09:38;;;;;;;20.13;19.43;;;21.30;96.90;;;;;;5039958;28;20990;-49
2023/05/12 05:12:06;;;;;;;19.57;18.90;;;21.30;96.80;;;;;;5050003;28;20471;-53
2023/05/12 05:14:32;;;;;;;20.03;19.33;;;21.30;96.70;;;;;;5052698;28;20487;-55
2023/05/12 05:17:00;;;;;;;19.37;18.67;;;21.30;96.70;;;;;;5052923;28;20444;-49
2023/05/12 05:19:27;;;;;;;19.70;18.70;;;21.30;96.60;;;;;;5052859;28;20523;-49
2023/05/12 05:21:54;;;;;;;19.20;18.60;;;21.20;96.60;;;;;;5052934;28;20882;-50
2023/05/12 05:24:21;;;;;;;18.73;18.13;;;21.20;96.40;;;;;;5052604;28;20472;-50
2023/05/12 05:26:49;;;;;;;19.77;19.07;;;21.20;96.40;;;;;;5052641;28;20542;-51
2023/05/12 05:29:16;;;;;;;19.00;18.20;;;21.20;96.30;;;;;;5052621;28;20468;-49
2023/05/12 05:31:43;;;;;;;19.30;18.60;;;21.20;96.20;;;;;;5052619;28;20931;-50
2023/05/12 05:34:10;;;;;;;18.70;18.10;;;21.20;96.00;;;;;;5052334;28;20455;-52
2023/05/12 05:36:36;;;;;;;20.07;19.10;;;21.20;96.10;;;;;;5052531;28;20476;-51
2023/05/12 05:39:03;;;;;;;19.13;18.53;;;21.20;96.10;;;;;;5052438;28;21065;-51
2023/05/12 05:41:30;;;;;;;19.57;18.97;;;21.20;96.10;;;;;;5052408;28;20483;-50
2023/05/12 05:43:58;;;;;;;18.77;18.17;;;21.20;96.30;;;;;;5052117;28;20472;-50
2023/05/12 05:46:25;;;;;;;20.20;19.40;;;21.20;96.30;;;;;;5052281;28;20843;-51
2023/05/12 05:48:52;;;;;;;18.57;17.93;;;21.20;96.30;;;;;;5052165;28;20460;-50
2023/05/12 05:51:19;;;;;;;18.57;18.00;;;21.20;96.30;;;;;;5052198;28;20483;-56
2023/05/12 05:53:46;;;;;;;17.83;17.30;;;21.20;96.20;;;;;;5052090;28;20483;-54
2023/05/12 05:56:13;;;;;;;19.00;18.40;;;21.20;96.30;;;;;;5052242;28;20485;-51
2023/05/12 05:58:40;;;;;;;18.23;17.63;;;21.20;96.30;;;;;;5052071;28;20503;-50
2023/05/12 06:01:08;;;;;;;18.87;18.27;;;21.20;96.30;;;;;;5052145;28;20539;-49
2023/05/12 06:03:35;;;;;;;18.40;17.80;;;21.20;96.30;;;;;;5051887;28;20448;-51
2023/05/12 06:06:03;;;;;;;19.47;18.87;;;21.20;96.30;;;;;;5051933;28;20484;-51
2023/05/12 06:08:30;;;;;;;19.40;18.77;;;21.20;96.30;;;;;;5051722;28;20479;-52
2023/05/12 06:10:57;;;;;;;19.10;18.50;;;21.20;96.40;;;;;;5051859;28;20487;-49
2023/05/12 06:13:25;;;;;;;20.23;19.43;;;21.20;96.40;;;;;;5051663;28;20510;-55
2023/05/12 06:15:51;;;;;;;19.40;18.80;;;21.20;96.50;;;;;;5051797;28;20444;-54
2023/05/12 06:18:21;;;;;;;19.70;19.00;;;21.20;96.40;;;;;;5051546;28;20500;-53
2023/05/12 06:20:48;;;;;;;19.10;18.50;;;21.20;96.50;;;;;;5051978;28;20523;-50
2023/05/12 06:23:15;;;;;;;20.43;19.73;;;21.20;96.50;;;;;;5051603;28;20482;-50
2023/05/12 06:25:42;;;;;;;20.77;20.07;;;21.20;96.40;;;;;;5051600;28;20574;-54
2023/05/12 06:28:09;;;;;;;21.97;21.20;;;21.20;97.00;;;;;;5051497;28;20543;-49
2023/05/12 06:30:36;;;;;;;21.53;20.83;;;21.30;97.10;;;;;;5051603;28;20448;-48
2023/05/12 06:33:03;;;;;;;21.77;21.07;;;21.40;96.70;;;;;;5051453;28;20535;-49
2023/05/12 06:35:31;;;;;;;22.20;21.20;;;21.50;96.50;;;;;;5051420;28;20480;-50
2023/05/12 06:37:58;;;;;;;23.03;22.23;;;21.60;96.30;;;;;;5051443;28;20794;-52
2023/05/12 06:40:25;;;;;;;22.20;21.40;;;21.60;95.90;;;;;;5051443;28;20500;-53
2023/05/12 06:42:52;;;;;;;22.80;21.93;;;21.70;95.60;;;;;;5051217;28;20475;-53
2023/05/12 06:45:18;;;;;;;22.67;21.87;;;21.70;95.40;;;;;;5051351;28;20557;-56
2023/05/12 06:47:45;;;;;;;23.00;22.00;;;21.70;95.20;;;;;;5051229;28;20507;-53
2023/05/12 06:50:12;;;;;;;23.80;22.70;;;21.70;95.60;;;;;;5050987;28;20495;-50
2023/05/12 06:52:40;;;;;;;24.63;23.33;;;21.80;96.40;;;;;;5051105;28;20559;-54
2023/05/12 06:55:08;;;;;;;26.17;24.40;;;21.80;97.10;;;;;;5051208;28;20483;-49
2023/05/12 06:57:35;;;;;;;23.93;22.60;;;21.90;99.90;;;;;;5051255;28;20539;-52
2023/05/12 07:00:02;;;;;;;23.73;22.43;;;21.90;99.90;;;;;;5051278;28;20480;-50
2023/05/12 07:02:29;;;;;;;25.40;23.60;;;22.00;99.90;;;;;;5051228;28;20455;-55
2023/05/12 07:04:56;;;;;;;27.57;25.50;;;22.00;99.90;;;;;;5051752;28;20501;-57
2023/05/12 07:07:23;;;;;;;24.20;23.30;;;22.00;99.90;;;;;;5051668;28;20562;-56
2023/05/12 07:09:51;;;;;;;24.17;23.10;;;22.10;99.70;;;;;;5051789;28;20471;-56
2023/05/12 07:12:18;;;;;;;25.13;24.13;;;22.10;98.40;;;;;;5051700;28;21010;-59
2023/05/12 07:14:45;;;;;;;24.80;23.80;;;22.10;97.30;;;;;;5051627;28;20448;-61
2023/05/12 07:17:12;;;;;;;25.40;23.83;;;22.10;96.60;;;;;;5051736;28;20479;-62
2023/05/12 07:19:39;;;;;;;24.83;23.93;;;22.10;96.20;;;;;;5052009;28;20472;-59
2023/05/12 07:22:06;;;;;;;24.23;23.17;;;22.10;95.60;;;;;;5051764;28;20947;-62
2023/05/12 07:24:33;;;;;;;25.80;24.77;;;22.20;95.20;;;;;;5051620;28;20796;-63
2023/05/12 07:27:01;;;;;;;23.53;22.67;;;22.20;95.30;;;;;;5051792;28;20522;-54
2023/05/12 07:29:28;;;;;;;24.20;23.27;;;22.20;94.90;;;;;;5051711;28;20472;-55
2023/05/12 07:31:55;;;;;;;23.97;22.90;;;22.30;94.40;;;;;;5051581;28;20865;-57
2023/05/12 07:34:22;;;;;;;24.80;23.80;;;22.20;93.80;;;;;;5051573;28;20482;-59
2023/05/12 07:36:49;;;;;;;21.33;20.52;;;22.30;93.60;;;;;;5044632;28;20480;-57
2023/05/12 07:39:18;;;;;;;24.37;23.27;;;22.30;93.40;;;;;;5029581;28;20748;-52
2023/05/12 07:41:45;;;;;;;24.67;23.60;;;22.20;93.10;;;;;;5031076;28;20445;-57
2023/05/12 07:44:13;;;;;;;24.60;23.60;;;22.20;92.00;;;;;;5031891;28;20483;-58
2023/05/12 07:46:40;;;;;;;24.63;23.73;;;22.00;92.60;;;;;;5031085;28;20576;-53
2023/05/12 07:49:07;;;;;;;24.27;23.40;;;22.00;93.00;;;;;;5031788;28;20847;-53
2023/05/12 07:51:34;;;;;;;22.02;21.15;;;21.80;92.40;;;;;;5031111;28;20495;-55
2023/05/12 07:54:01;;;;;;;21.40;20.70;;;21.90;91.90;;;;;;5030780;28;20909;-53
2023/05/12 07:56:27;;;;;;;25.97;25.07;;;21.80;92.20;;;;;;5031791;28;20226;-59
2023/05/12 07:58:54;;;;;;;25.27;24.37;;;21.90;92.40;;;;;;5031663;28;20497;-53
2023/05/12 08:01:23;;;;;;;24.50;23.60;;;22.00;91.90;;;;;;5031569;28;20453;-58
2023/05/12 08:03:50;;;;;;;24.30;23.50;;;21.90;91.50;;;;;;5034385;28;20948;-57
2023/05/12 08:06:17;;;;;;;24.70;23.87;;;22.00;91.60;;;;;;5034757;28;20503;-48
2023/05/12 08:08:45;;;;;;;25.00;24.10;;;21.90;91.80;;;;;;5035106;28;20504;-54
2023/05/12 08:11:12;;;;;;;24.57;23.73;;;21.80;91.40;;;;;;5034786;28;20456;-52
2023/05/12 08:13:39;;;;;;;25.40;24.50;;;21.80;91.20;;;;;;5034622;28;20449;-56
2023/05/12 08:16:06;;;;;;;25.83;24.73;;;21.80;92.00;;;;;;5034558;28;20978;-48
2023/05/12 08:18:34;;;;;;;26.00;25.10;;;21.90;92.40;;;;;;5034614;28;20552;-57
2023/05/12 08:21:01;;;;;;;24.83;23.93;;;21.80;92.00;;;;;;5035001;28;20484;-54
2023/05/12 08:23:28;;;;;;;24.70;23.80;;;21.70;91.90;;;;;;5034653;28;20895;-49
2023/05/12 08:25:55;;;;;;;24.77;23.87;;;21.70;92.10;;;;;;5034329;28;20477;-55
2023/05/12 08:28:22;;;;;;;23.70;22.90;;;21.70;92.80;;;;;;5034484;28;20505;-51
2023/05/12 08:30:49;;;;;;;25.07;23.97;;;21.70;92.50;;;;;;5034608;28;20538;-52
2023/05/12 08:33:16;;;;;;;24.80;24.00;;;21.70;92.20;;;;;;5033829;28;20524;-55
2023/05/12 08:35:44;;;;;;;24.20;23.40;;;21.70;93.50;;;;;;5034280;28;20449;-52
2023/05/12 08:38:11;;;;;;;24.90;23.90;;;21.70;92.90;;;;;;5034379;28;20552;-53
2023/05/12 08:40:53;;;;;;;23.97;23.10;;;21.80;92.40;;;;;;5034306;28;20492;-57
2023/05/12 08:43:25;;;;;;;25.23;24.00;;;21.70;92.30;;;;;;5034329;28;20487;-55
2023/05/12 08:45:56;;;;;;;26.10;25.10;;;21.70;92.30;;;;;;5034614;28;20507;-58
2023/05/12 08:48:26;;;;;;;24.97;23.97;;;21.60;92.30;;;;;;5034467;28;20476;-58
2023/05/12 08:50:56;;;;;;;24.40;23.50;;;21.60;92.60;;;;;;5034453;28;20458;-60
2023/05/12 08:53:25;;;;;;;25.20;24.20;;;21.70;92.60;;;;;;5027461;28;20973;-60
2023/05/12 08:55:54;;;;;;;23.80;23.00;;;21.70;92.70;;;;;;5012394;28;20529;-58
2023/05/12 08:58:21;;;;;;;24.37;23.57;;;21.60;92.20;;;;;;5013195;28;20466;-56
2023/05/12 09:00:50;;;;;;;23.90;23.10;;;21.70;92.20;;;;;;5014252;28;20892;-58
2023/05/12 09:03:20;;;;;;;22.90;22.20;;;21.80;91.70;;;;;;5013616;28;20968;-59
2023/05/12 09:05:47;;;;;;;23.90;23.10;;;21.90;91.70;;;;;;5014500;28;20541;-60
2023/05/12 09:08:15;;;;;;;24.77;23.87;;;21.90;91.80;;;;;;5013832;28;20933;-57
2023/05/12 09:10:44;;;;;;;24.87;23.90;;;22.00;92.60;;;;;;5014159;28;20489;-58
2023/05/12 09:13:14;;;;;;;24.30;23.27;;;22.10;92.10;;;;;;5013513;28;20533;-53
2023/05/12 09:15:47;;;;;;;24.60;23.80;;;22.10;92.20;;;;;;5014227;28;20474;-59
2023/05/12 09:18:14;;;;;;;25.00;24.20;;;22.20;92.20;;;;;;5013763;28;20908;-58
2023/05/12 09:20:41;;;;;;;25.20;24.30;;;22.20;92.10;;;;;;5014214;28;20481;-56
2023/05/12 09:23:17;;;;;;;25.27;24.20;;;22.20;92.50;;;;;;5013700;28;20992;-56
2023/05/12 09:25:45;;;;;;;23.83;22.83;;;22.20;92.50;;;;;;5013538;28;20485;-59
2023/05/12 09:28:13;;;;;;;22.07;21.27;;;22.30;92.30;;;;;;5013322;28;20446;-53
2023/05/12 09:30:41;;;;;;;23.57;22.67;;;22.30;92.30;;;;;;5014263;28;20839;-61
2023/05/12 09:33:08;;;;;;;23.40;22.60;;;22.40;92.10;;;;;;5013896;28;20826;-58
2023/05/12 09:35:40;;;;;;;22.13;21.33;;;22.40;92.70;;;;;;5013295;28;20479;-61
2023/05/12 09:38:08;;;;;;;23.60;22.80;;;22.50;92.20;;;;;;5013663;28;20250;-58
2023/05/12 09:40:37;;;;;;;23.93;23.13;;;22.50;92.10;;;;;;5013668;28;20481;-61
2023/05/12 09:43:04;;;;;;;24.30;23.30;;;22.50;92.50;;;;;;5013316;28;20507;-57
2023/05/12 09:45:35;;;;;;;23.67;22.80;;;22.50;92.30;;;;;;5013529;28;20481;-59
2023/05/12 09:48:10;;;;;;;24.60;23.70;;;22.50;92.20;;;;;;5013207;28;20490;-58
2023/05/12 09:50:44;;;;;;;24.57;23.70;;;22.60;92.50;;;;;;5013331;28;20447;-60
2023/05/12 09:53:11;;;;;;;23.57;22.77;;;22.60;92.50;;;;;;5013501;28;20446;-55
2023/05/12 09:55:42;;;;;;;24.57;23.67;;;22.60;92.20;;;;;;5013283;28;20837;-55
2023/05/12 09:58:11;;;;;;;21.20;20.30;;;22.50;92.10;;;;;;5012068;28;20489;-57
2023/05/12 10:00:39;;;;;;;23.63;22.83;;;22.50;91.90;;;;;;5013382;28;20235;-58
2023/05/12 10:03:11;;;;;;;24.77;23.87;;;22.60;91.80;;;;;;5012843;28;20542;-58
2023/05/12 10:08:04;;;;;;;24.00;22.90;;;22.70;92.30;;;;;;5081710;28;20555;-49
2023/05/12 10:10:33;;;;;;;23.80;23.00;;;22.70;92.70;;;;;;5049161;28;20464;-54
2023/05/12 10:13:00;;;;;;;23.93;23.13;;;22.70;92.50;;;;;;5058472;28;20474;-56
2023/05/12 10:15:28;;;;;;;23.37;22.40;;;22.70;92.90;;;;;;5067180;28;20526;-57
2023/05/12 10:20:24;;;;;;;23.10;22.20;;;22.70;92.70;;;;;;5066940;28;20554;-61
2023/05/12 10:22:53;;;;;;;23.87;22.90;;;22.70;92.70;;;;;;5062990;28;20452;-61
2023/05/12 10:25:22;;;;;;;23.60;22.60;;;22.70;92.50;;;;;;5047042;28;20457;-57
2023/05/12 10:27:50;;;;;;;23.20;22.30;;;22.70;92.50;;;;;;5048414;28;20516;-59
2023/05/12 10:30:17;;;;;;;22.75;21.95;;;22.70;92.50;;;;;;5048239;28;20518;-58
2023/05/12 10:32:44;;;;;;;24.30;23.33;;;22.70;92.80;;;;;;5048312;28;20299;-55
2023/05/12 10:35:13;;;;;;;24.30;23.40;;;22.70;92.40;;;;;;5048319;28;20479;-59
2023/05/12 10:37:42;;;;;;;23.50;22.60;;;22.70;92.50;;;;;;5048360;28;20441;-59
2023/05/12 10:40:10;;;;;;;24.10;23.10;;;22.80;92.10;;;;;;5048351;28;20468;-54
2023/05/12 10:42:40;;;;;;;23.40;22.60;;;22.90;92.00;;;;;;5049174;28;20498;-64
2023/05/12 10:45:16;;;;;;;22.67;21.77;;;22.80;91.90;;;;;;5048715;28;20898;-55
2023/05/12 10:47:44;;;;;;;25.13;23.73;;;22.80;92.00;;;;;;5048135;28;20836;-55
2023/05/12 10:50:13;;;;;;;25.27;23.90;;;22.80;92.00;;;;;;5048170;28;21000;-54
2023/05/12 10:52:40;;;;;;;23.23;22.43;;;22.80;91.90;;;;;;5047937;28;20945;-63
2023/05/12 10:55:13;;;;;;;24.93;23.80;;;22.70;92.40;;;;;;5048344;28;20482;-63
2023/05/12 10:57:50;;;;;;;23.77;22.97;;;22.80;93.00;;;;;;5048063;28;20445;-61
2023/05/12 11:00:24;;;;;;;23.67;22.77;;;22.80;92.60;;;;;;5049101;28;20791;-61
2023/05/12 11:02:51;;;;;;;25.57;24.13;;;22.80;92.60;;;;;;5048260;28;20941;-55
2023/05/12 11:05:18;;;;;;;22.00;21.20;;;22.80;92.50;;;;;;5047917;28;20492;-60
2023/05/12 11:07:49;;;;;;;24.20;23.37;;;22.80;92.20;;;;;;5047680;28;20523;-56
2023/05/12 11:10:16;;;;;;;23.70;22.70;;;22.80;92.30;;;;;;5048115;28;20476;-60
2023/05/12 11:12:44;;;;;;;25.10;24.17;;;22.80;92.50;;;;;;5047689;28;20482;-65
2023/05/12 11:15:13;;;;;;;24.57;23.33;;;22.80;92.30;;;;;;5047714;28;20441;-62
2023/05/12 11:17:40;;;;;;;21.45;20.65;;;22.80;92.00;;;;;;5042493;28;20457;-55
2023/05/12 11:20:09;;;;;;;24.23;23.33;;;22.80;91.90;;;;;;5034935;28;20259;-64
2023/05/12 11:22:36;;;;;;;24.87;23.87;;;23.00;91.90;;;;;;5034176;28;20456;-62
2023/05/12 11:25:10;;;;;;;23.40;22.40;;;23.00;91.60;;;;;;5034144;28;20484;-59
2023/05/12 11:27:41;;;;;;;22.73;21.83;;;23.00;91.20;;;;;;5034311;28;20492;-62
2023/05/12 11:30:09;;;;;;;22.70;21.70;;;23.00;91.00;;;;;;5034269;28;20819;-62
2023/05/12 11:32:38;;;;;;;22.20;21.40;;;22.90;91.10;;;;;;5034044;28;20929;-60
2023/05/12 11:35:09;;;;;;;22.37;21.47;;;23.00;91.50;;;;;;5034161;28;20504;-59
2023/05/12 11:37:37;;;;;;;22.80;22.00;;;22.90;91.40;;;;;;5033857;28;20520;-59
2023/05/12 11:40:21;;;;;;;23.03;22.23;;;23.00;91.70;;;;;;5033999;28;20468;-57
2023/05/12 11:42:52;;;;;;;22.10;21.30;;;23.00;91.80;;;;;;5033553;28;20523;-57
2023/05/12 11:45:21;;;;;;;24.20;23.20;;;22.90;91.70;;;;;;5034002;28;20552;-57
2023/05/12 11:47:49;;;;;;;23.77;22.97;;;22.90;91.60;;;;;;5034097;28;20481;-57
2023/05/12 11:50:23;;;;;;;23.03;22.23;;;22.90;91.50;;;;;;5033732;28;20500;-59
2023/05/12 11:52:51;;;;;;;24.10;23.10;;;22.90;92.10;;;;;;5033596;28;20492;-53
2023/05/12 11:55:23;;;;;;;22.40;21.70;;;23.00;91.80;;;;;;5033627;28;20863;-56
2023/05/12 11:57:58;;;;;;;22.77;21.97;;;23.00;92.10;;;;;;5033638;28;20504;-53
2023/05/12 12:00:33;;;;;;;23.20;22.40;;;23.00;92.40;;;;;;5033621;28;20897;-58
2023/05/12 12:03:10;;;;;;;23.03;22.20;;;23.00;92.30;;;;;;5033303;28;20476;-58
2023/05/12 12:05:37;;;;;;;22.53;21.80;;;23.00;92.00;;;;;;5033391;28;20472;-55
2023/05/12 12:08:08;;;;;;;23.73;22.83;;;23.00;92.00;;;;;;5033484;28;20826;-59
2023/05/12 12:10:36;;;;;;;22.53;21.83;;;23.00;92.20;;;;;;5033378;28;20445;-56
2023/05/12 12:13:03;;;;;;;21.90;21.10;;;23.00;92.20;;;;;;5033177;28;20924;-59
2023/05/12 12:15:31;;;;;;;22.27;21.57;;;23.00;92.30;;;;;;5033219;28;20495;-58
2023/05/12 12:17:58;;;;;;;24.00;23.20;;;23.00;92.10;;;;;;5033077;28;20480;-57
2023/05/12 12:20:27;;;;;;;23.53;22.63;;;23.00;92.00;;;;;;5044684;28;20480;-60
2023/05/12 12:22:54;;;;;;;23.40;22.50;;;23.00;92.00;;;;;;5051950;28;20475;-59
2023/05/12 12:25:22;;;;;;;23.17;22.37;;;23.00;91.80;;;;;;5053105;28;20807;-54
2023/05/12 12:27:49;;;;;;;23.40;22.60;;;23.00;91.90;;;;;;5052459;28;20519;-56
2023/05/12 12:30:17;;;;;;;24.20;23.40;;;23.00;92.10;;;;;;5051542;28;20527;-59
2023/05/12 12:32:44;;;;;;;23.40;22.60;;;23.00;91.90;;;;;;5052704;28;20445;-56
2023/05/12 12:35:12;;;;;;;22.97;22.27;;;23.00;92.50;;;;;;5052692;28;20459;-57
2023/05/12 12:37:41;;;;;;;23.90;23.10;;;23.00;91.90;;;;;;5052815;28;20476;-59
2023/05/12 12:40:09;;;;;;;22.73;21.93;;;23.00;91.90;;;;;;5052947;28;21014;-54